createdAt,value
2024-04-26T00:00:25.349Z,79.0298
2024-04-26T00:01:35.663Z,79.1745
2024-04-26T00:02:46.842Z,79.2599
2024-04-26T00:03:57.239Z,79.1430
2024-04-26T00:05:07.582Z,79.1549
2024-04-26T00:06:17.977Z,79.3024
2024-04-26T00:07:28.398Z,79.1358
2024-04-26T00:08:39.064Z,79.2231
2024-04-26T00:09:49.384Z,79.1109
2024-04-26T00:10:59.644Z,79.0560
2024-04-26T00:12:10.111Z,79.0463
2024-04-26T00:13:20.518Z,79.0194
2024-04-26T00:14:30.842Z,79.2195
2024-04-26T00:15:41.124Z,79.3657
2024-04-26T00:16:51.578Z,79.2424
2024-04-26T00:18:01.938Z,79.2971
2024-04-26T00:19:12.283Z,79.4430
2024-04-26T00:20:22.609Z,79.6104
2024-04-26T00:21:32.917Z,79.5661
2024-04-26T00:22:43.228Z,79.5405
2024-04-26T00:23:53.513Z,79.6193
2024-04-26T00:25:03.805Z,79.8998
2024-04-26T00:26:14.258Z,79.8505
2024-04-26T00:27:24.640Z,79.7765
2024-04-26T00:28:35.908Z,79.9201
2024-04-26T00:29:46.478Z,79.9985
2024-04-26T00:30:56.720Z,80.0488
2024-04-26T00:32:07.129Z,80.6831
2024-04-26T00:33:17.640Z,80.6905
2024-04-26T00:34:28.398Z,80.7691
2024-04-26T00:35:38.711Z,80.3710
2024-04-26T00:36:49.044Z,80.5160
2024-04-26T00:37:59.420Z,80.7322
2024-04-26T00:39:09.792Z,80.9209
2024-04-26T00:40:20.168Z,80.6266
2024-04-26T00:41:30.698Z,80.4369
2024-04-26T00:42:41.024Z,80.5610
2024-04-26T00:43:51.355Z,80.3901
2024-04-26T00:45:01.715Z,80.4705
2024-04-26T00:46:12.021Z,80.5318
2024-04-26T00:47:23.057Z,80.8064
2024-04-26T00:48:33.566Z,80.4463
2024-04-26T00:49:43.933Z,80.4527
2024-04-26T00:50:55.462Z,80.4634
2024-04-26T00:52:05.837Z,80.3400
2024-04-26T00:53:16.440Z,80.2953
2024-04-26T00:54:26.856Z,80.3141
2024-04-26T00:55:37.887Z,80.2808
2024-04-26T00:56:48.291Z,80.3036
2024-04-26T00:57:58.787Z,80.1760
2024-04-26T00:59:09.166Z,80.4224
2024-04-26T01:00:19.541Z,80.4362
2024-04-26T01:01:30.071Z,80.5570
2024-04-26T01:02:40.535Z,80.4423
2024-04-26T01:03:51.413Z,80.5460
2024-04-26T01:05:01.771Z,80.5608
2024-04-26T01:06:12.214Z,80.5041
2024-04-26T01:07:22.625Z,80.1757
2024-04-26T01:08:33.447Z,80.1261
2024-04-26T01:09:43.843Z,80.0826
2024-04-26T01:10:54.253Z,79.8678
2024-04-26T01:12:05.631Z,80.0659
2024-04-26T01:13:16.285Z,79.7800
2024-04-26T01:14:26.897Z,79.9863
2024-04-26T01:15:37.375Z,80.1104
2024-04-26T01:16:48.705Z,79.9023
2024-04-26T01:17:59.211Z,79.9825
2024-04-26T01:19:09.717Z,80.0310
2024-04-26T01:20:20.112Z,80.1841
2024-04-26T01:21:30.558Z,80.4034
2024-04-26T01:22:40.908Z,80.4499
2024-04-26T01:23:51.333Z,80.1831
2024-04-26T01:25:01.747Z,80.3382
2024-04-26T01:26:12.145Z,80.4041
2024-04-26T01:27:22.527Z,80.2897
2024-04-26T01:28:32.926Z,80.3698
2024-04-26T01:29:43.360Z,80.3052
2024-04-26T01:30:53.692Z,80.4288
2024-04-26T01:32:04.162Z,80.5936
2024-04-26T01:33:14.692Z,80.7924
2024-04-26T01:34:25.126Z,80.9252
2024-04-26T01:35:35.778Z,80.6757
2024-04-26T01:36:46.173Z,81.1513
2024-04-26T01:37:46.631Z,81.9080
2024-04-26T01:38:57.167Z,82.4737
2024-04-26T01:40:07.638Z,82.4234
2024-04-26T01:41:18.019Z,82.4076
2024-04-26T01:42:28.386Z,82.5277
2024-04-26T01:43:38.810Z,82.6701
2024-04-26T01:44:49.345Z,82.7314
2024-04-26T01:45:59.817Z,82.8672
2024-04-26T01:47:10.191Z,82.7522
2024-04-26T01:48:20.672Z,81.3306
2024-04-26T01:49:31.223Z,80.7925
2024-04-26T01:50:41.653Z,80.6928
2024-04-26T01:51:52.077Z,80.5521
2024-04-26T01:53:02.518Z,80.4959
2024-04-26T01:54:12.985Z,80.7586
2024-04-26T01:55:23.353Z,80.8029
2024-04-26T01:56:33.847Z,80.5468
2024-04-26T01:57:44.373Z,80.5257
2024-04-26T01:58:54.827Z,80.4713
2024-04-26T02:00:05.433Z,80.2706
2024-04-26T02:01:16.200Z,80.0443
2024-04-26T02:02:26.813Z,79.4479
2024-04-26T02:03:37.784Z,79.7948
2024-04-26T02:04:48.289Z,80.0910
2024-04-26T02:05:58.707Z,80.3957
2024-04-26T02:07:09.180Z,80.6071
2024-04-26T02:08:19.664Z,80.7685
2024-04-26T02:09:30.085Z,80.8723
2024-04-26T02:10:40.533Z,81.1317
2024-04-26T02:11:50.937Z,81.2411
2024-04-26T02:13:02.424Z,81.1775
2024-04-26T02:14:12.832Z,81.1686
2024-04-26T02:15:23.258Z,81.0094
2024-04-26T02:16:33.717Z,81.0737
2024-04-26T02:17:45.155Z,80.9837
2024-04-26T02:18:55.685Z,81.1706
2024-04-26T02:20:06.172Z,80.9082
2024-04-26T02:21:17.616Z,81.1406
2024-04-26T02:22:27.960Z,81.3708
2024-04-26T02:23:38.427Z,81.1312
2024-04-26T02:24:48.939Z,81.3260
2024-04-26T02:25:59.404Z,80.8944
2024-04-26T02:27:10.128Z,81.1299
2024-04-26T02:28:20.787Z,80.9252
2024-04-26T02:29:31.184Z,80.8924
2024-04-26T02:30:41.568Z,80.9845
2024-04-26T02:31:52.010Z,80.7744
2024-04-26T02:33:02.678Z,80.7085
2024-04-26T02:34:13.302Z,80.6523
2024-04-26T02:35:23.861Z,80.2810
2024-04-26T02:36:34.291Z,80.6717
2024-04-26T02:37:44.777Z,81.0605
2024-04-26T02:38:55.191Z,81.3252
2024-04-26T02:40:05.502Z,81.6373
2024-04-26T02:41:15.991Z,81.5966
2024-04-26T02:42:26.421Z,81.4725
2024-04-26T02:43:36.783Z,81.7128
2024-04-26T02:44:47.228Z,81.9511
2024-04-26T02:45:57.611Z,82.3466
2024-04-26T02:47:08.091Z,82.6065
2024-04-26T02:48:18.536Z,83.0666
2024-04-26T02:49:29.071Z,83.0254
2024-04-26T02:50:39.456Z,82.6790
2024-04-26T02:51:49.804Z,82.8979
2024-04-26T02:53:00.236Z,83.0317
2024-04-26T02:54:10.756Z,83.3392
2024-04-26T02:55:21.389Z,83.3153
2024-04-26T02:56:32.474Z,83.6166
2024-04-26T02:57:42.836Z,83.6138
2024-04-26T02:58:53.239Z,83.6273
2024-04-26T03:00:03.813Z,83.8275
2024-04-26T03:01:14.512Z,83.8732
2024-04-26T03:02:25.080Z,83.7026
2024-04-26T03:03:35.720Z,83.7349
2024-04-26T03:04:46.196Z,83.9696
2024-04-26T03:05:56.703Z,84.1464
2024-04-26T03:07:07.149Z,84.1443
2024-04-26T03:08:17.579Z,84.1230
2024-04-26T03:09:28.027Z,84.0981
2024-04-26T03:10:38.475Z,84.0953
2024-04-26T03:11:49.007Z,84.1672
2024-04-26T03:12:59.566Z,84.0711
2024-04-26T03:14:09.896Z,84.1087
2024-04-26T03:15:20.398Z,84.0876
2024-04-26T03:16:30.826Z,83.9663
2024-04-26T03:17:41.310Z,83.9122
2024-04-26T03:18:51.937Z,84.0398
2024-04-26T03:20:02.456Z,83.9511
2024-04-26T03:21:12.978Z,83.9371
2024-04-26T03:22:23.462Z,84.2130
2024-04-26T03:23:33.993Z,84.2616
2024-04-26T03:24:44.409Z,84.1599
2024-04-26T03:25:54.772Z,83.6454
2024-04-26T03:27:05.292Z,83.0238
2024-04-26T03:28:15.818Z,82.6149
2024-04-26T03:29:26.249Z,82.9821
2024-04-26T03:30:36.655Z,83.4056
2024-04-26T03:31:47.528Z,83.6001
2024-04-26T03:32:57.919Z,83.8277
2024-04-26T03:34:08.405Z,83.9434
2024-04-26T03:35:18.803Z,84.1973
2024-04-26T03:36:29.194Z,83.9437
2024-04-26T03:37:39.572Z,84.0920
2024-04-26T03:38:50.025Z,84.3430
2024-04-26T03:40:00.443Z,84.7044
2024-04-26T03:41:11.549Z,84.7074
2024-04-26T03:42:21.918Z,84.7382
2024-04-26T03:43:32.310Z,84.8819
2024-04-26T03:44:42.687Z,84.8587
2024-04-26T03:45:53.144Z,84.9391
2024-04-26T03:47:03.523Z,84.8620
2024-04-26T03:48:14.112Z,84.5373
2024-04-26T03:49:24.842Z,84.6713
2024-04-26T03:50:35.602Z,85.0912
2024-04-26T03:51:45.989Z,85.0619
2024-04-26T03:52:56.397Z,84.7692
2024-04-26T03:54:06.932Z,84.7522
2024-04-26T03:55:17.341Z,84.2908
2024-04-26T03:56:27.759Z,84.1889
2024-04-26T03:57:38.118Z,83.9968
2024-04-26T03:58:48.587Z,84.0322
2024-04-26T03:59:59.038Z,83.9727
2024-04-26T04:01:09.470Z,83.8511
2024-04-26T04:02:19.888Z,84.0436
2024-04-26T04:03:30.447Z,84.0312
2024-04-26T04:04:40.955Z,83.9920
2024-04-26T04:05:51.326Z,84.1059
2024-04-26T04:07:01.792Z,84.3768
2024-04-26T04:08:12.108Z,83.8893
2024-04-26T04:09:22.417Z,82.9976
2024-04-26T04:10:32.779Z,83.0584
2024-04-26T04:11:43.238Z,82.9323
2024-04-26T04:12:53.932Z,82.6741
2024-04-26T04:14:04.285Z,82.9806
2024-04-26T04:15:14.630Z,83.4465
2024-04-26T04:16:25.005Z,83.3201
2024-04-26T04:17:35.359Z,83.4501
2024-04-26T04:18:45.976Z,83.3448
2024-04-26T04:19:56.481Z,82.8476
2024-04-26T04:21:06.891Z,83.4025
2024-04-26T04:22:17.319Z,83.2438
2024-04-26T04:23:27.874Z,83.8659
2024-04-26T04:24:38.355Z,84.4165
2024-04-26T04:25:48.715Z,84.1334
2024-04-26T04:26:59.132Z,83.4246
2024-04-26T04:28:09.480Z,83.0790
2024-04-26T04:29:19.854Z,82.8926
2024-04-26T04:30:30.188Z,82.7759
2024-04-26T04:31:40.623Z,82.9898
2024-04-26T04:32:51.204Z,83.1909
2024-04-26T04:34:01.775Z,82.6640
2024-04-26T04:35:12.214Z,82.5864
2024-04-26T04:36:22.624Z,82.8433
2024-04-26T04:37:33.001Z,83.2293
2024-04-26T04:38:43.436Z,84.0057
2024-04-26T04:39:54.493Z,84.2150
2024-04-26T04:41:04.760Z,84.3259
2024-04-26T04:42:15.214Z,84.7601
2024-04-26T04:43:26.427Z,84.7911
2024-04-26T04:44:36.918Z,84.6298
2024-04-26T04:45:48.810Z,84.7364
2024-04-26T04:46:49.263Z,84.4974
2024-04-26T04:47:59.866Z,84.1009
2024-04-26T04:49:10.625Z,83.8511
2024-04-26T04:50:21.071Z,84.3086
2024-04-26T04:51:31.464Z,84.3465
2024-04-26T04:52:41.866Z,84.5892
2024-04-26T04:53:52.276Z,84.5670
2024-04-26T04:55:02.785Z,84.7656
2024-04-26T04:56:13.167Z,84.6667
2024-04-26T04:57:23.687Z,84.6560
2024-04-26T04:58:34.494Z,84.7667
2024-04-26T04:59:45.055Z,84.6380
2024-04-26T05:00:55.656Z,84.4254
2024-04-26T05:02:06.108Z,84.2451
2024-04-26T05:03:16.644Z,83.6583
2024-04-26T05:04:27.188Z,84.0820
2024-04-26T05:05:37.739Z,83.8051
2024-04-26T05:06:48.201Z,83.7453
2024-04-26T05:07:58.586Z,83.3015
2024-04-26T05:09:09.102Z,83.2995
2024-04-26T05:10:19.610Z,83.2891
2024-04-26T05:11:30.190Z,83.5258
2024-04-26T05:12:40.832Z,83.6400
2024-04-26T05:13:51.304Z,83.3900
2024-04-26T05:15:02.553Z,83.4620
2024-04-26T05:16:13.016Z,83.5286
2024-04-26T05:17:23.540Z,84.0515
2024-04-26T05:18:34.383Z,82.5589
2024-04-26T05:19:45.033Z,81.9570
2024-04-26T05:20:56.603Z,81.6063
2024-04-26T05:22:07.078Z,81.3148
2024-04-26T05:23:17.619Z,81.2662
2024-04-26T05:24:30.231Z,81.6258
2024-04-26T05:25:30.717Z,81.6016
2024-04-26T05:26:41.534Z,82.2787
2024-04-26T05:27:51.985Z,81.9890
2024-04-26T05:29:02.467Z,82.0274
2024-04-26T05:30:13.064Z,82.5991
2024-04-26T05:31:23.717Z,82.7573
2024-04-26T05:32:34.295Z,82.6673
2024-04-26T05:33:44.987Z,82.6050
2024-04-26T05:34:55.575Z,82.6856
2024-04-26T05:36:07.128Z,82.6207
2024-04-26T05:37:17.677Z,82.1599
2024-04-26T05:38:28.632Z,82.1569
2024-04-26T05:39:39.126Z,82.0335
2024-04-26T05:40:49.533Z,82.1619
2024-04-26T05:42:00.188Z,81.8715
2024-04-26T05:43:10.805Z,81.7304
2024-04-26T05:44:21.273Z,81.8212
2024-04-26T05:45:31.691Z,81.9407
2024-04-26T05:46:42.178Z,82.3117
2024-04-26T05:47:52.885Z,81.9659
2024-04-26T05:49:03.821Z,81.8184
2024-04-26T05:50:14.501Z,82.2955
2024-04-26T05:51:25.918Z,82.2433
2024-04-26T05:52:36.423Z,82.0218
2024-04-26T05:53:47.002Z,81.8936
2024-04-26T05:54:57.443Z,81.7398
2024-04-26T05:56:07.867Z,82.0567
2024-04-26T05:57:18.383Z,81.8334
2024-04-26T05:58:28.774Z,81.4766
2024-04-26T05:59:39.251Z,81.3252
2024-04-26T06:00:49.713Z,81.5625
2024-04-26T06:02:00.125Z,81.6927
2024-04-26T06:03:11.587Z,81.8402
2024-04-26T06:04:22.113Z,82.1523
2024-04-26T06:05:32.582Z,81.9577
2024-04-26T06:06:42.990Z,81.9674
2024-04-26T06:07:53.581Z,82.1996
2024-04-26T06:09:04.108Z,82.4247
2024-04-26T06:10:14.616Z,82.4430
2024-04-26T06:11:25.102Z,82.7476
2024-04-26T06:12:36.255Z,82.7408
2024-04-26T06:13:46.658Z,82.5851
2024-04-26T06:14:47.620Z,82.6618
2024-04-26T06:15:58.151Z,82.7136
2024-04-26T06:17:08.680Z,82.7418
2024-04-26T06:18:19.292Z,82.6981
2024-04-26T06:19:30.038Z,82.3201
2024-04-26T06:20:40.603Z,82.1632
2024-04-26T06:21:51.147Z,81.9916
2024-04-26T06:23:01.693Z,81.8911
2024-04-26T06:24:12.365Z,81.5045
2024-04-26T06:25:22.901Z,81.4819
2024-04-26T06:26:33.642Z,82.0462
2024-04-26T06:27:44.148Z,82.0246
2024-04-26T06:28:54.646Z,82.0971
2024-04-26T06:30:05.243Z,81.7349
2024-04-26T06:31:15.763Z,81.4725
2024-04-26T06:32:26.403Z,81.5943
2024-04-26T06:33:26.274Z,81.8552
2024-04-26T06:34:36.730Z,81.2614
2024-04-26T06:35:47.234Z,79.7859
2024-04-26T06:36:57.762Z,79.2144
2024-04-26T06:38:08.125Z,79.1389
2024-04-26T06:39:18.486Z,77.9945
2024-04-26T06:40:28.790Z,76.8368
2024-04-26T06:41:39.298Z,76.6868
2024-04-26T06:42:49.893Z,75.9431
2024-04-26T06:44:07.187Z,76.4724
2024-04-26T06:45:04.923Z,76.3745
2024-04-26T06:46:15.202Z,76.1720
2024-04-26T06:47:25.742Z,75.9866
2024-04-26T06:48:36.470Z,75.8145
2024-04-26T06:49:47.153Z,76.4945
2024-04-26T06:50:57.590Z,75.7364
2024-04-26T06:52:07.850Z,75.2934
2024-04-26T06:53:18.153Z,75.4177
2024-04-26T06:54:28.388Z,75.3585
2024-04-26T06:55:38.669Z,74.6878
2024-04-26T06:56:48.959Z,74.0798
2024-04-26T06:57:59.259Z,73.7212
2024-04-26T06:59:09.620Z,72.6866
2024-04-26T07:00:19.900Z,72.6975
2024-04-26T07:01:30.282Z,72.8206
2024-04-26T07:02:41.771Z,72.4046
2024-04-26T07:03:52.693Z,72.6197
2024-04-26T07:05:03.134Z,73.4574
2024-04-26T07:06:13.621Z,73.8582
2024-04-26T07:07:23.998Z,73.5617
2024-04-26T07:08:34.295Z,72.4651
2024-04-26T07:09:44.483Z,71.6121
2024-04-26T07:10:54.827Z,71.2528
2024-04-26T07:12:05.050Z,70.8687
2024-04-26T07:13:15.376Z,70.9364
2024-04-26T07:14:25.997Z,71.0534
2024-04-26T07:15:36.320Z,70.5491
2024-04-26T07:16:46.634Z,70.4875
2024-04-26T07:17:58.084Z,70.5519
2024-04-26T07:19:08.741Z,70.3431
2024-04-26T07:20:19.072Z,70.4120
2024-04-26T07:21:30.395Z,71.0768
2024-04-26T07:22:53.097Z,70.7022
2024-04-26T07:23:45.536Z,70.2809
2024-04-26T07:24:55.889Z,70.4039
2024-04-26T07:26:06.237Z,70.1033
2024-04-26T07:27:16.584Z,70.2614
2024-04-26T07:28:27.897Z,70.1508
2024-04-26T07:29:38.333Z,70.3291
2024-04-26T07:30:48.679Z,70.1785
2024-04-26T07:31:58.982Z,70.3344
2024-04-26T07:33:09.422Z,70.2731
2024-04-26T07:34:19.976Z,70.3037
2024-04-26T07:35:30.550Z,70.4402
2024-04-26T07:36:41.002Z,70.7403
2024-04-26T07:37:51.307Z,70.0613
2024-04-26T07:39:02.627Z,69.1780
2024-04-26T07:40:13.003Z,68.9319
2024-04-26T07:41:23.392Z,68.4029
2024-04-26T07:42:33.647Z,67.4365
2024-04-26T07:43:43.972Z,66.7412
2024-04-26T07:44:54.389Z,66.5583
2024-04-26T07:46:04.671Z,66.9945
2024-04-26T07:47:14.983Z,66.9825
2024-04-26T07:48:25.467Z,66.8279
2024-04-26T07:49:36.317Z,66.6845
2024-04-26T07:50:46.804Z,66.1957
2024-04-26T07:51:57.877Z,65.9177
2024-04-26T07:53:08.181Z,66.0713
2024-04-26T07:54:18.699Z,65.9271
2024-04-26T07:55:29.139Z,66.8277
2024-04-26T07:56:39.523Z,67.2722
2024-04-26T07:57:49.831Z,65.7280
2024-04-26T07:59:00.126Z,65.8020
2024-04-26T08:01:21.031Z,66.9134
2024-04-26T08:02:31.384Z,65.9584
2024-04-26T08:03:42.199Z,66.0082
2024-04-26T08:04:52.654Z,65.7753
2024-04-26T08:06:02.958Z,65.8348
2024-04-26T08:07:13.327Z,66.2226
2024-04-26T08:08:23.627Z,65.6662
2024-04-26T08:09:33.922Z,65.5136
2024-04-26T08:10:44.206Z,65.8307
2024-04-26T08:11:54.700Z,65.4012
2024-04-26T08:13:05.095Z,65.8638
2024-04-26T08:14:15.372Z,65.5952
2024-04-26T08:15:25.778Z,65.9599
2024-04-26T08:16:36.072Z,66.1346
2024-04-26T08:17:46.645Z,65.9335
2024-04-26T08:18:57.193Z,65.3241
2024-04-26T08:19:57.835Z,65.5427
2024-04-26T08:21:08.305Z,66.1756
2024-04-26T08:22:18.692Z,66.3966
2024-04-26T08:23:29.045Z,66.2941
2024-04-26T08:24:48.288Z,66.7175
2024-04-26T08:25:44.070Z,65.9657
2024-04-26T08:26:54.501Z,66.1125
2024-04-26T08:28:04.920Z,66.4640
2024-04-26T08:29:16.280Z,67.1127
2024-04-26T08:30:26.714Z,66.8332
2024-04-26T08:31:37.142Z,66.4652
2024-04-26T08:32:51.305Z,67.2325
2024-04-26T08:33:52.257Z,67.5023
2024-04-26T08:35:02.994Z,67.2541
2024-04-26T08:36:13.521Z,67.9166
2024-04-26T08:37:23.967Z,67.4159
2024-04-26T08:38:34.411Z,67.4146
2024-04-26T08:39:49.532Z,67.5428
2024-04-26T08:40:49.551Z,67.7168
2024-04-26T08:41:49.483Z,67.7873
2024-04-26T08:42:59.874Z,66.8854
2024-04-26T08:44:10.142Z,67.2819
2024-04-26T08:45:20.912Z,67.1049
2024-04-26T08:46:37.867Z,66.7234
2024-04-26T08:47:37.656Z,66.5605
2024-04-26T08:48:48.332Z,67.3521
2024-04-26T08:49:58.756Z,65.8236
2024-04-26T08:51:09.177Z,66.2880
2024-04-26T08:52:19.503Z,66.4637
2024-04-26T08:53:29.983Z,66.0665
2024-04-26T08:54:40.334Z,66.0365
2024-04-26T08:55:50.707Z,66.1804
2024-04-26T08:57:02.178Z,65.6771
2024-04-26T08:58:12.488Z,65.0322
2024-04-26T08:59:22.753Z,65.1021
2024-04-26T09:00:34.056Z,65.6069
2024-04-26T09:01:44.506Z,64.9722
2024-04-26T09:02:55.222Z,64.9396
2024-04-26T09:04:05.664Z,65.0492
2024-04-26T09:05:16.497Z,64.5660
2024-04-26T09:06:26.953Z,64.5276
2024-04-26T09:07:37.254Z,65.3407
2024-04-26T09:08:47.616Z,65.3185
2024-04-26T09:09:57.851Z,65.5627
2024-04-26T09:11:08.211Z,65.2303
2024-04-26T09:12:19.148Z,65.6085
2024-04-26T09:13:29.631Z,65.3676
2024-04-26T09:14:39.926Z,65.5970
2024-04-26T09:15:50.264Z,65.4721
2024-04-26T09:17:00.700Z,65.6497
2024-04-26T09:18:11.161Z,65.0673
2024-04-26T09:19:21.769Z,65.1034
2024-04-26T09:20:32.497Z,65.5113
2024-04-26T09:21:42.935Z,64.5907
2024-04-26T09:22:53.979Z,64.2646
2024-04-26T09:24:04.377Z,64.3252
2024-04-26T09:25:14.667Z,64.3427
2024-04-26T09:26:25.049Z,64.7387
2024-04-26T09:27:35.430Z,64.7227
2024-04-26T09:28:45.917Z,63.5330
2024-04-26T09:29:56.195Z,63.6545
2024-04-26T09:31:06.594Z,63.9058
2024-04-26T09:32:23.406Z,64.3628
2024-04-26T09:33:22.212Z,64.5225
2024-04-26T09:34:32.902Z,64.6184
2024-04-26T09:35:44.615Z,64.7122
2024-04-26T09:36:55.138Z,63.7181
2024-04-26T09:38:05.394Z,63.6444
2024-04-26T09:39:15.738Z,63.4391
2024-04-26T09:40:26.128Z,64.0136
2024-04-26T09:41:36.469Z,63.8689
2024-04-26T09:42:46.921Z,63.0925
2024-04-26T09:43:57.267Z,63.6589
2024-04-26T09:45:08.156Z,64.1624
2024-04-26T09:46:18.717Z,63.7995
2024-04-26T09:47:29.928Z,62.9084
2024-04-26T09:48:30.049Z,62.9709
2024-04-26T09:49:40.686Z,62.5333
2024-04-26T09:50:51.332Z,63.5678
2024-04-26T09:52:01.755Z,63.7201
2024-04-26T09:53:12.503Z,62.8585
2024-04-26T09:54:22.888Z,62.5620
2024-04-26T09:55:33.394Z,63.1729
2024-04-26T09:56:43.952Z,62.9292
2024-04-26T09:57:55.081Z,63.3028
2024-04-26T09:59:05.567Z,63.4068
2024-04-26T10:00:16.295Z,62.6006
2024-04-26T10:01:26.910Z,62.8272
2024-04-26T10:02:27.829Z,62.8992
2024-04-26T10:03:38.514Z,62.3743
2024-04-26T10:04:49.477Z,62.6848
2024-04-26T10:06:00.806Z,62.5806
2024-04-26T10:07:12.199Z,61.8802
2024-04-26T10:08:24.110Z,62.2627
2024-04-26T10:09:23.690Z,61.5067
2024-04-26T10:10:35.280Z,61.1757
2024-04-26T10:11:47.008Z,61.4621
2024-04-26T10:12:58.731Z,62.5480
2024-04-26T10:13:59.627Z,62.5434
2024-04-26T10:14:59.541Z,61.9327
2024-04-26T10:15:59.493Z,62.3322
2024-04-26T10:17:11.272Z,62.4173
2024-04-26T10:18:23.007Z,62.6022
2024-04-26T10:19:34.990Z,62.8003
2024-04-26T10:20:46.858Z,61.5920
2024-04-26T10:21:58.519Z,61.2517
2024-04-26T10:23:10.057Z,61.6317
2024-04-26T10:24:21.558Z,60.0356
2024-04-26T10:25:33.149Z,59.2940
2024-04-26T10:26:44.830Z,59.4064
2024-04-26T10:27:56.509Z,59.2879
2024-04-26T10:29:09.088Z,59.4321
2024-04-26T10:30:08.976Z,59.2496
2024-04-26T10:31:20.726Z,59.4603
2024-04-26T10:32:32.714Z,59.4962
2024-04-26T10:33:32.841Z,59.5108
2024-04-26T10:34:44.682Z,59.3927
2024-04-26T10:35:56.150Z,59.2162
2024-04-26T10:37:07.620Z,59.1745
2024-04-26T10:38:19.286Z,59.2315
2024-04-26T10:39:31.114Z,59.1297
2024-04-26T10:40:42.183Z,58.9993
2024-04-26T10:41:53.324Z,59.2907
2024-04-26T10:43:04.530Z,60.6691
2024-04-26T10:44:15.713Z,60.5358
2024-04-26T10:45:26.895Z,60.4356
2024-04-26T10:46:38.054Z,60.1958
2024-04-26T10:47:50.014Z,60.0554
2024-04-26T10:48:49.990Z,59.9332
2024-04-26T10:50:01.196Z,59.4850
2024-04-26T10:51:12.309Z,59.4074
2024-04-26T10:52:23.218Z,59.3428
2024-04-26T10:53:34.252Z,59.1142
2024-04-26T10:54:45.357Z,59.0186
2024-04-26T10:55:56.348Z,58.7251
2024-04-26T10:57:07.568Z,58.9853
2024-04-26T10:58:19.080Z,59.3523
2024-04-26T10:59:30.465Z,60.1221
2024-04-26T11:00:41.868Z,60.0265
2024-04-26T11:01:53.295Z,60.2589
2024-04-26T11:03:04.538Z,60.5603
2024-04-26T11:04:16.217Z,61.2810
2024-04-26T11:05:27.744Z,60.8672
2024-04-26T11:06:39.161Z,60.4412
2024-04-26T11:07:50.366Z,60.8100
2024-04-26T11:09:01.433Z,60.1150
2024-04-26T11:10:12.300Z,59.8215
2024-04-26T11:11:23.403Z,59.8637
2024-04-26T11:12:37.058Z,59.4751
2024-04-26T11:13:36.356Z,59.9432
2024-04-26T11:14:47.500Z,61.0445
2024-04-26T11:15:58.804Z,61.4140
2024-04-26T11:17:10.006Z,61.1851
2024-04-26T11:18:22.184Z,60.8657
2024-04-26T11:19:21.632Z,60.5945
2024-04-26T11:20:33.059Z,59.8014
2024-04-26T11:21:46.272Z,59.7767
2024-04-26T11:22:47.229Z,59.7232
2024-04-26T11:23:58.170Z,59.5616
2024-04-26T11:25:09.201Z,58.9972
2024-04-26T11:26:20.315Z,59.3871
2024-04-26T11:27:31.546Z,59.0016
2024-04-26T11:28:43.120Z,58.7050
2024-04-26T11:29:54.683Z,58.5809
2024-04-26T11:31:06.300Z,58.5807
2024-04-26T11:32:17.857Z,59.2643
2024-04-26T11:33:39.229Z,58.5107
2024-04-26T11:34:34.667Z,58.7958
2024-04-26T11:35:46.109Z,58.4120
2024-04-26T11:36:57.665Z,58.4334
2024-04-26T11:38:08.863Z,59.3215
2024-04-26T11:39:20.083Z,60.2815
2024-04-26T11:40:32.304Z,60.5254
2024-04-26T11:41:43.502Z,60.6350
2024-04-26T11:42:54.553Z,61.1040
2024-04-26T11:44:05.504Z,60.2218
2024-04-26T11:45:16.439Z,60.2571
2024-04-26T11:46:27.394Z,60.5379
2024-04-26T11:47:38.342Z,60.4568
2024-04-26T11:48:49.497Z,59.6050
2024-04-26T11:49:50.215Z,59.4492
2024-04-26T11:51:01.387Z,59.8647
2024-04-26T11:52:12.356Z,59.3240
2024-04-26T11:53:23.259Z,58.5120
2024-04-26T11:54:34.217Z,59.1409
2024-04-26T11:55:45.313Z,57.8564
2024-04-26T11:56:56.466Z,58.2137
2024-04-26T11:58:07.435Z,58.6407
2024-04-26T11:59:18.285Z,58.9904
2024-04-26T12:00:29.110Z,59.3159
2024-04-26T12:01:40.045Z,59.5458
2024-04-26T12:02:50.968Z,59.4832
2024-04-26T12:04:02.191Z,59.2747
2024-04-26T12:05:13.238Z,59.6969
2024-04-26T12:06:24.558Z,59.1226
2024-04-26T12:07:35.816Z,57.7818
2024-04-26T12:08:50.796Z,56.7048
2024-04-26T12:09:51.602Z,56.8048
2024-04-26T12:11:03.249Z,56.6809
2024-04-26T12:12:15.040Z,56.9233
2024-04-26T12:13:15.933Z,56.4541
2024-04-26T12:14:27.353Z,56.4251
2024-04-26T12:15:38.783Z,57.7391
2024-04-26T12:16:50.016Z,57.3121
2024-04-26T12:18:01.479Z,57.1707
2024-04-26T12:19:12.813Z,56.3867
2024-04-26T12:20:23.889Z,55.5083
2024-04-26T12:21:34.973Z,57.1895
2024-04-26T12:22:46.148Z,57.3841
2024-04-26T12:23:57.375Z,57.6717
2024-04-26T12:25:09.011Z,57.5448
2024-04-26T12:26:09.391Z,58.1363
2024-04-26T12:27:21.242Z,57.8777
2024-04-26T12:28:21.183Z,57.4484
2024-04-26T12:29:32.926Z,57.4612
2024-04-26T12:30:44.585Z,57.2997
2024-04-26T12:31:56.901Z,57.0281
2024-04-26T12:32:57.149Z,57.3837
2024-04-26T12:34:08.661Z,58.1511
2024-04-26T12:35:20.034Z,58.0580
2024-04-26T12:36:31.196Z,58.0112
2024-04-26T12:37:42.123Z,57.5929
2024-04-26T12:38:53.026Z,56.6537
2024-04-26T12:40:04.075Z,56.6901
2024-04-26T12:41:14.960Z,56.8544
2024-04-26T12:42:25.821Z,56.5746
2024-04-26T12:43:36.856Z,56.2420
2024-04-26T12:44:48.125Z,56.0327
2024-04-26T12:45:59.233Z,55.4579
2024-04-26T12:47:10.585Z,55.1225
2024-04-26T12:48:22.163Z,55.4274
2024-04-26T12:49:22.364Z,55.4250
2024-04-26T12:50:23.488Z,55.3106
2024-04-26T12:51:23.377Z,54.6490
2024-04-26T12:52:34.304Z,54.5009
2024-04-26T12:53:46.412Z,54.8646
2024-04-26T12:54:57.327Z,54.1629
2024-04-26T12:56:07.886Z,54.3704
2024-04-26T12:57:18.454Z,54.4353
2024-04-26T12:58:29.199Z,54.0037
2024-04-26T12:59:39.825Z,53.8628
2024-04-26T13:00:50.501Z,54.1077
2024-04-26T13:02:01.034Z,53.7199
2024-04-26T13:03:14.970Z,54.5614
2024-04-26T13:04:14.664Z,54.2574
2024-04-26T13:05:25.412Z,55.0502
2024-04-26T13:06:36.224Z,54.4844
2024-04-26T13:07:46.922Z,54.7679
2024-04-26T13:08:57.509Z,54.9516
2024-04-26T13:10:08.187Z,55.1720
2024-04-26T13:11:19.128Z,55.5599
2024-04-26T13:12:30.539Z,55.2244
2024-04-26T13:13:41.947Z,55.4060
2024-04-26T13:14:53.515Z,55.0841
2024-04-26T13:16:04.943Z,54.7143
2024-04-26T13:17:16.014Z,53.3374
2024-04-26T13:18:26.810Z,53.4913
2024-04-26T13:19:37.848Z,51.5953
2024-04-26T13:20:48.658Z,52.3242
2024-04-26T13:21:59.275Z,52.6889
2024-04-26T13:23:09.767Z,53.4976
2024-04-26T13:24:20.350Z,53.4694
2024-04-26T13:25:30.989Z,52.2693
2024-04-26T13:26:41.813Z,53.0259
2024-04-26T13:27:52.432Z,53.6861
2024-04-26T13:29:03.887Z,53.0981
2024-04-26T13:30:14.495Z,52.9051
2024-04-26T13:31:25.150Z,51.5775
2024-04-26T13:32:37.736Z,51.2217
2024-04-26T13:33:37.091Z,51.4122
2024-04-26T13:34:47.814Z,51.5437
2024-04-26T13:35:58.779Z,51.9392
2024-04-26T13:37:09.421Z,51.9989
2024-04-26T13:38:20.935Z,51.7456
2024-04-26T13:39:31.512Z,51.6884
2024-04-26T13:40:42.096Z,52.2855
2024-04-26T13:41:52.775Z,52.0590
2024-04-26T13:43:03.460Z,51.5653
2024-04-26T13:44:14.168Z,51.8667
2024-04-26T13:45:24.801Z,52.2126
2024-04-26T13:46:35.529Z,51.2581
2024-04-26T13:47:46.209Z,50.4456
2024-04-26T13:48:57.051Z,51.4117
2024-04-26T13:50:08.719Z,50.4423
2024-04-26T13:51:19.253Z,50.8270
2024-04-26T13:52:29.731Z,51.3291
2024-04-26T13:53:40.211Z,50.7401
2024-04-26T13:54:50.582Z,52.2530
2024-04-26T13:56:02.118Z,52.8659
2024-04-26T13:57:13.760Z,52.0503
2024-04-26T13:58:24.319Z,52.3702
2024-04-26T13:59:36.245Z,52.6116
2024-04-26T14:00:36.578Z,53.2418
2024-04-26T14:01:47.392Z,53.6482
2024-04-26T14:02:58.328Z,53.6922
2024-04-26T14:04:09.490Z,53.5398
2024-04-26T14:05:20.632Z,52.6747
2024-04-26T14:06:31.441Z,51.4221
2024-04-26T14:07:41.991Z,51.2848
2024-04-26T14:08:52.620Z,52.0984
2024-04-26T14:10:03.358Z,52.8641